Huvudsida
METAR-TAF:

METAR-TAF

Flygplatser :

Vidsels flygplats

Vidsel, Sverige

latitud: 65-52N, longitud: 020-08E, höjd: 180 m

Aktuellt väderrapport

Denna rapport gjordes för 42 minuter sedan, klockan 22:20 UTC
Stilla vind
Temperatur -22°C
Fuktighet 84%
Tryck 1017 hPa
Sikt: 1200 m
snö

METAR: ESPE 232220Z AUTO 00000KT 1200 0900// R11/1300VP2000U R29/1400VP2000N SN OVC006/// M22/M24 Q1017

Tid: 00:02 (23:02 UTC)

Väderprognos

Denna rapport gjordes för 8 timmar och 42 minuter sedan, klockan 14:20 UTC
Prognos gäller från 23 kl. 12 UTC till 23 kl. 15 UTC
Vind 2 kt varierande vindriktning
Sikt 10 km eller mer
Spridda moln på en höjd av 900 ft
Brutna moln på en höjd av 1600 ft
Temporärt
från 23 kl. 14 UTC till 23 kl. 15 UTC
Brutna moln på en höjd av 900 ft

TAF: ESPE 231420Z 2312/2315 VRB02KT 9999 SCT009 BKN016 TEMPO 2314/2315 BKN009 RMK MIL

Aktuella väderrapporter och prognoser från 4000 flygplatser (METAR- och TAF-rapporter).

De tillgängliga stationerna syns som gula och röda prickar på kartan.

För musen över prickarna för att se namnen på stationerna.

Klicka sedan för att få väderrapporter och prognoser.

För att ändra kartan: Klicka på de gröna knapparna med ett svart kors på för att zooma in; den gröna knappen med ett streck på för att zooma ut; eller på de gröna pilarna för angränsande kartor.


METAR-TAF: